createdAt,value
2019-02-27T00:01:43.136Z,58.54
2019-02-27T00:04:12.731Z,58.17
2019-02-27T00:06:42.210Z,58.02
2019-02-27T00:09:12.627Z,57.88
2019-02-27T00:11:45.970Z,57.60
2019-02-27T00:14:13.370Z,57.74
2019-02-27T00:16:44.603Z,57.54
2019-02-27T00:19:14.085Z,57.60
2019-02-27T00:21:44.326Z,57.54
2019-02-27T00:24:13.833Z,57.36
2019-02-27T00:26:43.322Z,57.29
2019-02-27T00:29:12.831Z,57.51
2019-02-27T00:31:45.308Z,57.30
2019-02-27T00:34:13.547Z,57.45
2019-02-27T00:36:45.066Z,57.76
2019-02-27T00:39:14.269Z,57.64
2019-02-27T00:41:46.032Z,57.67
2019-02-27T00:44:15.029Z,57.94
2019-02-27T00:46:46.471Z,58.09
2019-02-27T00:49:15.721Z,57.82
2019-02-27T00:51:45.510Z,58.41
2019-02-27T00:54:14.984Z,59.37
2019-02-27T00:56:45.016Z,59.45
2019-02-27T00:59:15.097Z,59.77
2019-02-27T01:01:47.303Z,59.73
2019-02-27T01:04:15.803Z,59.98
2019-02-27T01:06:47.540Z,60.36
2019-02-27T01:09:16.833Z,60.36
2019-02-27T01:11:46.333Z,60.93
2019-02-27T01:14:15.819Z,61.23
2019-02-27T01:16:47.741Z,61.40
2019-02-27T01:19:16.551Z,61.43
2019-02-27T01:21:46.023Z,61.47
2019-02-27T01:24:17.554Z,61.44
2019-02-27T01:26:46.703Z,61.31
2019-02-27T01:29:18.135Z,60.90
2019-02-27T01:31:47.416Z,60.62
2019-02-27T01:34:17.876Z,60.61
2019-02-27T01:36:47.371Z,60.58
2019-02-27T01:39:16.859Z,60.77
2019-02-27T01:41:46.372Z,60.23
2019-02-27T01:44:15.880Z,60.25
2019-02-27T01:46:45.388Z,59.98
2019-02-27T01:49:16.121Z,59.73
2019-02-27T01:51:46.278Z,59.16
2019-02-27T01:54:15.802Z,59.06
2019-02-27T01:56:45.230Z,58.89
2019-02-27T01:59:16.915Z,58.94
2019-02-27T02:01:45.932Z,58.79
2019-02-27T02:04:19.987Z,58.58
2019-02-27T02:06:46.707Z,58.54
2019-02-27T02:09:41.338Z,58.51
2019-02-27T02:12:23.333Z,58.58
2019-02-27T02:15:39.070Z,58.66
2019-02-27T02:18:45.756Z,59.10
2019-02-27T02:22:25.197Z,59.02
2019-02-27T02:25:28.044Z,59.15
2019-02-27T02:29:05.890Z,59.48
2019-02-27T02:31:51.830Z,59.88
2019-02-27T02:34:58.186Z,60.07
2019-02-27T02:37:53.745Z,60.15
2019-02-27T02:40:51.190Z,60.14
2019-02-27T02:44:00.828Z,60.15
2019-02-27T02:46:48.752Z,59.98
2019-02-27T02:49:50.015Z,59.79
2019-02-27T02:52:40.740Z,59.84
2019-02-27T02:55:56.190Z,59.61
2019-02-27T02:58:53.489Z,59.47
2019-02-27T03:02:10.217Z,59.25
2019-02-27T03:05:23.662Z,59.49
2019-02-27T03:08:12.163Z,59.11
2019-02-27T03:10:46.594Z,59.03
2019-02-27T03:14:03.966Z,58.71
2019-02-27T03:17:23.550Z,58.23
2019-02-27T03:20:41.513Z,58.67
2019-02-27T03:24:07.159Z,58.17
2019-02-27T03:27:04.509Z,57.73
2019-02-27T03:30:02.808Z,57.02
2019-02-27T03:32:45.190Z,57.07
2019-02-27T03:35:54.462Z,56.66
2019-02-27T03:39:00.663Z,56.65
2019-02-27T03:42:23.318Z,56.83
2019-02-27T03:45:22.090Z,56.61
2019-02-27T03:48:35.168Z,56.79
2019-02-27T03:51:32.475Z,56.54
2019-02-27T03:54:27.825Z,56.50
2019-02-27T03:57:41.311Z,55.47
2019-02-27T04:00:49.843Z,55.96
2019-02-27T04:03:58.450Z,55.45
2019-02-27T04:07:13.654Z,55.11
2019-02-27T04:09:43.136Z,54.72
2019-02-27T04:12:16.094Z,54.75
2019-02-27T04:14:43.876Z,54.48
2019-02-27T04:17:13.344Z,54.93
2019-02-27T04:19:43.176Z,55.05
2019-02-27T04:22:12.679Z,54.84
2019-02-27T04:24:42.157Z,55.40
2019-02-27T04:27:11.647Z,55.73
2019-02-27T04:29:41.903Z,55.86
2019-02-27T04:32:12.433Z,55.75
2019-02-27T04:34:42.684Z,55.43
2019-02-27T04:37:12.173Z,55.57
2019-02-27T04:39:41.656Z,55.42
2019-02-27T04:42:11.152Z,55.57
2019-02-27T04:44:40.654Z,55.67
2019-02-27T04:47:10.163Z,55.13
2019-02-27T04:49:39.667Z,55.53
2019-02-27T04:52:09.156Z,56.46
2019-02-27T04:54:41.327Z,56.76
2019-02-27T04:57:09.890Z,57.21
2019-02-27T04:59:39.379Z,57.61
2019-02-27T05:02:08.875Z,57.62
2019-02-27T05:04:38.354Z,57.70
2019-02-27T05:07:07.824Z,57.67
2019-02-27T05:09:37.296Z,57.81
2019-02-27T05:12:06.814Z,57.08
2019-02-27T05:14:36.297Z,56.46
2019-02-27T05:17:05.799Z,56.56
2019-02-27T05:19:37.230Z,56.40
2019-02-27T05:22:06.541Z,56.31
2019-02-27T05:24:36.023Z,56.44
2019-02-27T05:27:05.535Z,57.07
2019-02-27T05:29:35.205Z,56.38
2019-02-27T05:32:06.261Z,56.08
2019-02-27T05:34:35.795Z,55.70
2019-02-27T05:37:06.028Z,56.06
2019-02-27T05:39:35.602Z,55.24
2019-02-27T05:42:06.373Z,55.19
2019-02-27T05:44:36.481Z,55.23
2019-02-27T05:47:05.984Z,54.62
2019-02-27T05:49:35.527Z,54.63
2019-02-27T05:52:05.011Z,54.43
2019-02-27T05:54:34.504Z,54.34
2019-02-27T05:57:04.048Z,54.40
2019-02-27T05:59:33.545Z,54.40
2019-02-27T06:02:03.072Z,54.74
2019-02-27T06:04:34.390Z,54.33
2019-02-27T06:07:03.841Z,54.24
2019-02-27T06:09:33.319Z,54.35
2019-02-27T06:12:06.669Z,54.64
2019-02-27T06:14:34.150Z,54.66
2019-02-27T06:17:03.661Z,55.16
2019-02-27T06:19:33.603Z,55.38
2019-02-27T06:22:05.829Z,55.40
2019-02-27T06:24:35.102Z,55.44
2019-02-27T06:27:06.267Z,55.13
2019-02-27T06:29:35.898Z,55.35
2019-02-27T06:32:05.411Z,55.42
2019-02-27T06:34:34.972Z,55.32
2019-02-27T06:37:06.716Z,55.44
2019-02-27T06:39:36.227Z,54.91
2019-02-27T06:42:05.787Z,55.04
2019-02-27T06:44:36.627Z,55.19
2019-02-27T06:47:07.253Z,55.14
2019-02-27T06:49:36.786Z,55.51
2019-02-27T06:52:09.046Z,55.17
2019-02-27T06:54:37.844Z,55.32
2019-02-27T06:57:08.298Z,55.43
2019-02-27T06:59:37.976Z,55.28
2019-02-27T07:02:07.519Z,55.82
2019-02-27T07:04:39.503Z,56.45
2019-02-27T07:07:08.258Z,56.87
2019-02-27T07:09:37.759Z,56.86
2019-02-27T07:12:07.392Z,57.02
2019-02-27T07:14:39.251Z,56.82
2019-02-27T07:17:08.117Z,56.70
2019-02-27T07:19:37.665Z,56.86
2019-02-27T07:22:09.226Z,56.46
2019-02-27T07:24:38.466Z,56.72
2019-02-27T07:27:07.972Z,56.62
2019-02-27T07:29:37.477Z,56.58
2019-02-27T07:32:06.982Z,56.26
2019-02-27T07:34:36.496Z,56.13
2019-02-27T07:37:06.003Z,56.05
2019-02-27T07:39:35.516Z,56.36
2019-02-27T07:42:05.033Z,57.07
2019-02-27T07:44:35.040Z,58.24
2019-02-27T07:47:05.420Z,58.65
2019-02-27T07:49:34.999Z,59.44
2019-02-27T07:52:04.657Z,59.73
2019-02-27T07:54:34.160Z,59.16
2019-02-27T07:57:03.679Z,58.66
2019-02-27T07:59:37.873Z,58.55
2019-02-27T08:02:04.404Z,57.97
2019-02-27T08:04:34.027Z,58.03
2019-02-27T08:07:03.586Z,58.31
2019-02-27T08:09:33.088Z,59.05
2019-02-27T08:12:02.645Z,59.37
2019-02-27T08:14:36.823Z,59.20
2019-02-27T08:17:03.414Z,58.64
2019-02-27T08:19:32.985Z,58.37
2019-02-27T08:22:02.515Z,57.63
2019-02-27T08:24:33.674Z,57.33
2019-02-27T08:27:03.322Z,57.39
2019-02-27T08:29:32.926Z,57.10
2019-02-27T08:32:02.515Z,57.53
2019-02-27T08:34:32.022Z,58.15
2019-02-27T08:37:01.580Z,58.73
2019-02-27T08:39:31.109Z,59.01
2019-02-27T08:42:03.275Z,58.94
2019-02-27T08:44:31.875Z,58.68
2019-02-27T08:47:01.406Z,58.46
2019-02-27T08:49:31.893Z,58.34
2019-02-27T08:52:01.444Z,57.46
2019-02-27T08:54:33.074Z,58.74
2019-02-27T08:57:02.190Z,58.76
2019-02-27T08:59:31.716Z,58.59
2019-02-27T09:02:01.272Z,58.33
2019-02-27T09:04:30.861Z,58.63
2019-02-27T09:07:02.848Z,59.18
2019-02-27T09:09:31.768Z,59.85
2019-02-27T09:12:03.200Z,59.73
2019-02-27T09:14:32.785Z,59.39
2019-02-27T09:17:02.312Z,59.32
2019-02-27T09:19:31.839Z,58.66
2019-02-27T09:22:02.469Z,59.75
2019-02-27T09:24:32.098Z,59.02
2019-02-27T09:27:01.633Z,58.58
2019-02-27T09:29:31.213Z,58.42
2019-02-27T09:32:00.744Z,58.17
2019-02-27T09:34:30.296Z,58.07
2019-02-27T09:36:59.825Z,57.14
2019-02-27T09:39:31.158Z,56.72
2019-02-27T09:42:02.626Z,56.87
2019-02-27T09:44:36.366Z,57.19
2019-02-27T09:47:03.431Z,57.91
2019-02-27T09:49:32.965Z,58.19
2019-02-27T09:52:02.547Z,58.45
2019-02-27T09:54:33.931Z,58.38
2019-02-27T09:57:03.329Z,58.73
2019-02-27T09:59:32.844Z,58.94
2019-02-27T10:02:02.467Z,59.70
2019-02-27T10:04:31.987Z,59.30
2019-02-27T10:07:01.491Z,59.10
2019-02-27T10:09:34.472Z,58.45
2019-02-27T10:12:02.271Z,58.39
2019-02-27T10:14:31.775Z,57.62
2019-02-27T10:17:01.281Z,57.90
2019-02-27T10:19:30.842Z,57.55
2019-02-27T10:22:00.374Z,57.03
2019-02-27T10:24:29.884Z,56.35
2019-02-27T10:26:59.392Z,55.96
2019-02-27T10:29:28.918Z,56.06
2019-02-27T10:32:00.727Z,56.30
2019-02-27T10:34:29.719Z,56.12
2019-02-27T10:36:59.277Z,56.18
2019-02-27T10:39:28.914Z,56.35
2019-02-27T10:41:58.454Z,55.96
2019-02-27T10:44:27.961Z,55.01
2019-02-27T10:47:00.067Z,54.91
2019-02-27T10:49:28.717Z,55.04
2019-02-27T10:51:58.224Z,54.95
2019-02-27T10:54:27.712Z,55.01
2019-02-27T10:56:57.225Z,54.65
2019-02-27T10:59:26.735Z,54.19
2019-02-27T11:01:56.240Z,54.17
2019-02-27T11:04:25.727Z,53.99
2019-02-27T11:06:55.235Z,54.65
2019-02-27T11:09:27.267Z,54.03
2019-02-27T11:11:56.818Z,53.99
2019-02-27T11:14:31.658Z,54.25
2019-02-27T11:17:02.052Z,54.44
2019-02-27T11:19:29.094Z,54.85
2019-02-27T11:21:59.113Z,54.89
2019-02-27T11:24:28.766Z,55.17
2019-02-27T11:26:58.281Z,55.03
2019-02-27T11:29:27.861Z,55.38
2019-02-27T11:31:57.383Z,55.69
2019-02-27T11:34:26.874Z,56.63
2019-02-27T11:36:56.370Z,57.16
2019-02-27T11:39:25.873Z,57.49
2019-02-27T11:41:55.362Z,58.27
2019-02-27T11:44:24.880Z,58.47
2019-02-27T11:46:58.650Z,58.32
2019-02-27T11:49:25.676Z,57.84
2019-02-27T11:51:56.978Z,57.06
2019-02-27T11:54:26.629Z,56.38
2019-02-27T11:56:57.027Z,56.16
2019-02-27T11:59:26.638Z,55.68
2019-02-27T12:01:56.284Z,55.06
2019-02-27T12:04:25.762Z,55.19
2019-02-27T12:06:55.308Z,55.02
2019-02-27T12:09:24.931Z,54.92
2019-02-27T12:11:54.439Z,55.33
2019-02-27T12:14:23.921Z,55.96
2019-02-27T12:16:53.440Z,56.25
2019-02-27T12:19:22.997Z,56.89
2019-02-27T12:21:52.532Z,56.91
2019-02-27T12:24:22.054Z,56.68
2019-02-27T12:26:51.610Z,56.82
2019-02-27T12:29:21.100Z,56.71
2019-02-27T12:31:50.608Z,56.35
2019-02-27T12:34:20.107Z,55.79
2019-02-27T12:36:49.946Z,54.85
2019-02-27T12:39:20.852Z,53.99
2019-02-27T12:41:50.371Z,53.06
2019-02-27T12:44:19.870Z,52.84
2019-02-27T12:46:49.399Z,52.54
2019-02-27T12:49:20.163Z,52.23
2019-02-27T12:51:50.160Z,52.38
2019-02-27T12:54:19.690Z,52.66
2019-02-27T12:56:49.201Z,52.67
2019-02-27T12:59:18.731Z,52.61
2019-02-27T13:01:50.702Z,52.35
2019-02-27T13:04:20.049Z,52.01
2019-02-27T13:06:49.838Z,51.82
2019-02-27T13:09:19.354Z,51.94
2019-02-27T13:11:48.864Z,52.08
2019-02-27T13:14:18.372Z,52.31
2019-02-27T13:16:49.526Z,52.36
2019-02-27T13:19:19.123Z,52.36
2019-02-27T13:21:48.671Z,52.83
2019-02-27T13:24:18.203Z,52.78
2019-02-27T13:26:47.753Z,53.00
2019-02-27T13:29:17.287Z,53.34
2019-02-27T13:31:48.439Z,53.69
2019-02-27T13:34:18.050Z,53.89
2019-02-27T13:36:47.600Z,54.26
2019-02-27T13:39:17.120Z,54.41
2019-02-27T13:41:46.634Z,54.32
2019-02-27T13:44:16.124Z,53.96
2019-02-27T13:46:45.848Z,53.92
2019-02-27T13:49:15.379Z,54.05
2019-02-27T13:51:44.949Z,54.99
2019-02-27T13:54:14.443Z,55.87
2019-02-27T13:56:44.003Z,55.71
2019-02-27T13:59:13.510Z,55.99
2019-02-27T14:01:43.029Z,56.45
2019-02-27T14:04:12.568Z,56.68
2019-02-27T14:06:43.389Z,56.86
2019-02-27T14:09:13.651Z,56.75
2019-02-27T14:11:43.144Z,56.75
2019-02-27T14:14:15.099Z,56.90
2019-02-27T14:16:43.953Z,57.35
2019-02-27T14:19:13.492Z,57.87
2019-02-27T14:21:42.999Z,58.48
2019-02-27T14:24:12.560Z,58.81
2019-02-27T14:26:42.230Z,59.03
2019-02-27T14:29:11.743Z,59.31
2019-02-27T14:31:43.475Z,59.48
2019-02-27T14:34:12.485Z,58.64
2019-02-27T14:36:42.507Z,58.17
2019-02-27T14:39:14.341Z,58.46
2019-02-27T14:41:47.991Z,57.25
2019-02-27T14:44:15.063Z,56.92
2019-02-27T14:46:45.010Z,57.03
2019-02-27T14:49:15.182Z,57.10
2019-02-27T14:51:44.703Z,56.91
2019-02-27T14:54:14.225Z,56.88
2019-02-27T14:56:43.747Z,57.04
2019-02-27T14:59:13.223Z,57.40
2019-02-27T15:01:42.722Z,57.46
2019-02-27T15:04:12.231Z,57.47
2019-02-27T15:06:41.756Z,57.65
2019-02-27T15:09:11.288Z,58.14
2019-02-27T15:11:40.770Z,58.47
2019-02-27T15:14:10.294Z,58.63
2019-02-27T15:16:39.804Z,58.16
2019-02-27T15:19:09.379Z,58.23
2019-02-27T15:21:38.903Z,59.41
2019-02-27T15:24:10.433Z,60.84
2019-02-27T15:26:45.240Z,61.46
2019-02-27T15:29:10.990Z,61.96
2019-02-27T15:31:40.541Z,62.15
2019-02-27T15:34:12.296Z,62.04
2019-02-27T15:36:41.319Z,62.27
2019-02-27T15:39:10.926Z,62.25
2019-02-27T15:41:40.417Z,62.24
2019-02-27T15:44:09.924Z,62.12
2019-02-27T15:46:39.510Z,61.67
2019-02-27T15:49:09.030Z,61.54
2019-02-27T15:51:38.543Z,61.58
2019-02-27T15:54:08.084Z,61.84
2019-02-27T15:56:41.519Z,62.20
2019-02-27T15:59:08.833Z,62.21
2019-02-27T16:01:38.502Z,62.02
2019-02-27T16:04:08.230Z,61.86
2019-02-27T16:06:39.753Z,61.44
2019-02-27T16:09:10.372Z,61.26
2019-02-27T16:11:39.871Z,61.10
2019-02-27T16:14:10.331Z,60.80
2019-02-27T16:16:40.036Z,60.74
2019-02-27T16:19:10.803Z,60.71
2019-02-27T16:21:40.770Z,60.99
2019-02-27T16:24:10.355Z,60.89
2019-02-27T16:26:39.859Z,61.17
2019-02-27T16:29:09.348Z,60.94
2019-02-27T16:31:40.049Z,60.87
2019-02-27T16:34:10.029Z,60.89
2019-02-27T16:36:39.553Z,60.97
2019-02-27T16:39:09.253Z,60.87
2019-02-27T16:41:38.755Z,61.04
2019-02-27T16:44:08.257Z,59.49
2019-02-27T16:46:43.571Z,59.96
2019-02-27T16:49:10.154Z,60.28
2019-02-27T16:51:40.465Z,60.39
2019-02-27T16:54:09.944Z,59.08
2019-02-27T16:56:39.462Z,58.90
2019-02-27T16:59:11.889Z,59.11
2019-02-27T17:01:40.462Z,59.04
2019-02-27T17:04:11.425Z,58.89
2019-02-27T17:06:41.058Z,59.11
2019-02-27T17:09:12.476Z,59.20
2019-02-27T17:11:41.986Z,59.83
2019-02-27T17:14:11.520Z,60.74
2019-02-27T17:16:44.498Z,60.10
2019-02-27T17:19:12.333Z,60.69
2019-02-27T17:21:41.898Z,60.20
2019-02-27T17:24:11.440Z,59.34
2019-02-27T17:26:41.083Z,58.76
2019-02-27T17:29:10.663Z,59.13
2019-02-27T17:31:48.984Z,59.59
2019-02-27T17:34:13.816Z,59.85
2019-02-27T17:36:42.658Z,59.21
2019-02-27T17:39:12.213Z,59.76
2019-02-27T17:41:44.535Z,59.16
2019-02-27T17:44:13.062Z,58.14
2019-02-27T17:46:42.621Z,59.24
2019-02-27T17:49:12.167Z,59.39
2019-02-27T17:51:41.659Z,59.69
2019-02-27T17:54:11.186Z,59.57
2019-02-27T17:56:40.973Z,58.35
2019-02-27T17:59:10.529Z,58.56
2019-02-27T18:01:40.010Z,58.73
2019-02-27T18:04:12.216Z,58.49
2019-02-27T18:06:40.748Z,58.81
2019-02-27T18:09:10.475Z,58.83
2019-02-27T18:11:40.004Z,58.85
2019-02-27T18:14:10.189Z,58.51
2019-02-27T18:16:39.779Z,58.44
2019-02-27T18:19:09.306Z,58.66
2019-02-27T18:21:38.808Z,58.69
2019-02-27T18:24:08.335Z,58.78
2019-02-27T18:26:37.866Z,58.79
2019-02-27T18:29:08.261Z,58.63
2019-02-27T18:31:37.771Z,58.54
2019-02-27T18:34:07.311Z,58.41
2019-02-27T18:36:42.850Z,58.70
2019-02-27T18:39:08.522Z,58.98
2019-02-27T18:41:39.700Z,59.03
2019-02-27T18:44:09.328Z,58.94
2019-02-27T18:46:38.911Z,59.02
2019-02-27T18:49:08.415Z,58.92
2019-02-27T18:51:37.918Z,58.90
2019-02-27T18:54:07.505Z,58.99
2019-02-27T18:56:40.270Z,59.19
2019-02-27T18:59:08.321Z,59.26
2019-02-27T19:01:37.847Z,59.16
2019-02-27T19:04:07.418Z,59.16
2019-02-27T19:06:36.931Z,59.11
2019-02-27T19:09:08.854Z,59.06
2019-02-27T19:11:38.467Z,59.05
2019-02-27T19:14:08.034Z,59.19
2019-02-27T19:16:37.570Z,59.17
2019-02-27T19:19:07.172Z,59.24
2019-02-27T19:21:36.667Z,59.34
2019-02-27T19:24:06.256Z,59.37
2019-02-27T19:26:35.911Z,59.39
2019-02-27T19:29:05.692Z,59.44
2019-02-27T19:31:35.201Z,59.49
2019-02-27T19:34:07.387Z,59.48
2019-02-27T19:36:35.991Z,59.52
2019-02-27T19:39:07.281Z,59.51
2019-02-27T19:41:39.639Z,59.45
2019-02-27T19:44:08.196Z,59.58
2019-02-27T19:46:37.707Z,59.81
2019-02-27T19:49:07.229Z,59.82
2019-02-27T19:51:36.726Z,59.68
2019-02-27T19:54:06.233Z,59.57
2019-02-27T19:56:36.262Z,59.10
2019-02-27T19:59:05.907Z,59.03
2019-02-27T20:01:35.409Z,58.84
2019-02-27T20:04:08.991Z,58.85
2019-02-27T20:06:36.223Z,58.99
2019-02-27T20:09:06.757Z,58.75
2019-02-27T20:11:40.040Z,58.50
2019-02-27T20:14:07.848Z,58.22
2019-02-27T20:16:37.487Z,57.89
2019-02-27T20:19:07.100Z,58.29
2019-02-27T20:21:36.610Z,58.12
2019-02-27T20:24:14.280Z,58.31
2019-02-27T20:26:44.226Z,58.41
2019-02-27T20:29:08.657Z,58.38
2019-02-27T20:31:38.152Z,58.29
2019-02-27T20:34:10.703Z,58.45
2019-02-27T20:36:38.832Z,58.15
2019-02-27T20:39:12.411Z,58.30
2019-02-27T20:41:43.909Z,58.50
2019-02-27T20:44:14.552Z,58.45
2019-02-27T20:46:46.446Z,58.34
2019-02-27T20:49:15.388Z,58.35
2019-02-27T20:51:44.906Z,58.23
2019-02-27T20:54:14.404Z,58.44
2019-02-27T20:56:43.906Z,58.21
2019-02-27T20:59:13.435Z,58.29
2019-02-27T21:01:46.744Z,58.21
2019-02-27T21:04:14.363Z,58.02
2019-02-27T21:06:47.388Z,58.16
2019-02-27T21:09:15.566Z,57.54
2019-02-27T21:11:45.065Z,57.58
2019-02-27T21:14:14.521Z,57.58
2019-02-27T21:16:45.693Z,57.85
2019-02-27T21:19:15.365Z,57.82
2019-02-27T21:21:44.937Z,58.19
2019-02-27T21:24:14.461Z,58.09
2019-02-27T21:26:43.949Z,58.27
2019-02-27T21:29:13.463Z,58.04
2019-02-27T21:31:43.027Z,58.07
2019-02-27T21:34:12.589Z,58.18
2019-02-27T21:36:42.419Z,57.99
2019-02-27T21:39:11.949Z,57.95
2019-02-27T21:41:42.315Z,58.10
2019-02-27T21:44:12.739Z,57.87
2019-02-27T21:46:46.221Z,57.62
2019-02-27T21:49:13.460Z,57.46
2019-02-27T21:51:47.675Z,57.65
2019-02-27T21:54:14.993Z,57.30
2019-02-27T21:56:44.479Z,57.32
2019-02-27T21:59:13.990Z,56.91
2019-02-27T22:01:43.448Z,57.21
2019-02-27T22:04:14.132Z,56.98
2019-02-27T22:06:43.687Z,57.08
2019-02-27T22:09:13.571Z,57.02
2019-02-27T22:11:43.923Z,57.22
2019-02-27T22:14:16.591Z,57.60
2019-02-27T22:16:44.601Z,57.38
2019-02-27T22:19:14.074Z,57.26
2019-02-27T22:21:43.635Z,57.14
2019-02-27T22:24:13.164Z,57.46
2019-02-27T22:26:42.686Z,57.21
2019-02-27T22:29:12.244Z,57.60
2019-02-27T22:31:41.742Z,57.71
2019-02-27T22:34:11.229Z,57.66
2019-02-27T22:36:44.028Z,57.79
2019-02-27T22:39:11.943Z,58.04
2019-02-27T22:41:41.768Z,57.93
2019-02-27T22:44:11.391Z,57.92
2019-02-27T22:46:40.877Z,57.96
2019-02-27T22:49:10.348Z,57.91
2019-02-27T22:51:39.854Z,57.82
2019-02-27T22:54:09.350Z,57.88
2019-02-27T22:56:38.818Z,57.95
2019-02-27T22:59:08.342Z,57.87
2019-02-27T23:01:49.362Z,58.29
2019-02-27T23:04:15.838Z,58.37
2019-02-27T23:06:47.086Z,58.61
2019-02-27T23:09:17.751Z,58.78
2019-02-27T23:11:47.343Z,59.03
2019-02-27T23:14:18.928Z,59.10
2019-02-27T23:16:48.461Z,59.25
2019-02-27T23:19:17.942Z,59.34
2019-02-27T23:21:47.439Z,59.40
2019-02-27T23:24:16.909Z,59.38
2019-02-27T23:26:46.427Z,59.68
2019-02-27T23:29:15.931Z,59.67
2019-02-27T23:31:45.420Z,59.87
2019-02-27T23:34:14.906Z,59.86
2019-02-27T23:36:44.403Z,60.08
2019-02-27T23:39:13.878Z,60.42
2019-02-27T23:41:43.380Z,60.49
2019-02-27T23:44:12.898Z,60.42
2019-02-27T23:46:49.597Z,60.42
2019-02-27T23:49:13.746Z,60.54
2019-02-27T23:51:43.271Z,60.74
2019-02-27T23:54:12.811Z,60.60
2019-02-27T23:56:42.354Z,60.58
2019-02-27T23:59:11.868Z,60.53
